Time;durP1;ratioP1;P1;durP2;ratioP2;P2;SDS_P1;SDS_P2;PMS_P1;PMS_P2;Temp;Humidity;BMP_temperature;BMP_pressure;BME280_temperature;BME280_humidity;BME280_pressure;Samples;Min_cycle;Max_cycle;Signal;HPM_P1;HPM_P2
2020/12/07 00:00:34;;;;;;;8.98;5.32;;;23.00;32.50;;;;;;6157453;28;81719;-67
2020/12/07 00:03:35;;;;;;;6.72;4.85;;;23.00;31.70;;;;;;6167742;28;81004;-67
2020/12/07 00:06:35;;;;;;;8.27;5.70;;;23.00;32.10;;;;;;6172425;28;80710;-68
2020/12/07 00:09:36;;;;;;;8.68;5.88;;;23.00;32.20;;;;;;6184658;28;80625;-65
2020/12/07 00:12:36;;;;;;;8.80;5.18;;;23.00;32.10;;;;;;6184682;28;80738;-66
2020/12/07 00:15:37;;;;;;;7.20;5.28;;;23.00;31.90;;;;;;6181881;27;81412;-66
2020/12/07 00:18:37;;;;;;;8.82;5.20;;;23.00;32.20;;;;;;6185988;28;80568;-67
2020/12/07 00:21:38;;;;;;;7.22;5.35;;;23.00;32.80;;;;;;6179888;27;80894;-66
2020/12/07 00:24:38;;;;;;;7.28;5.18;;;23.00;32.30;;;;;;6178638;28;82953;-66
2020/12/07 00:27:39;;;;;;;8.02;4.78;;;23.00;32.30;;;;;;6182200;28;81299;-66
2020/12/07 00:30:40;;;;;;;8.73;5.15;;;23.00;32.40;;;;;;6181501;28;81027;-67
2020/12/07 00:33:40;;;;;;;5.93;4.65;;;23.00;32.60;;;;;;6177129;28;80421;-67
2020/12/07 00:36:41;;;;;;;7.07;5.15;;;23.00;32.00;;;;;;6168934;28;80730;-65
2020/12/07 00:39:41;;;;;;;7.00;4.85;;;23.00;32.30;;;;;;6170979;28;82516;-65
2020/12/07 00:42:42;;;;;;;7.05;4.72;;;23.00;32.00;;;;;;6179406;28;80740;-68
2020/12/07 00:45:42;;;;;;;7.60;4.75;;;23.00;32.50;;;;;;6176673;27;81592;-66
2020/12/07 00:48:43;;;;;;;8.40;4.50;;;23.00;32.90;;;;;;6178203;28;80820;-66
2020/12/07 00:51:44;;;;;;;7.20;4.40;;;23.00;32.70;;;;;;6179699;27;81004;-69
2020/12/07 00:54:44;;;;;;;6.03;4.68;;;22.90;32.20;;;;;;6177477;28;84224;-69
2020/12/07 00:57:45;;;;;;;7.55;4.82;;;22.90;32.40;;;;;;6174072;28;82323;-69
2020/12/07 01:00:47;;;;;;;6.55;4.75;;;22.90;32.30;;;;;;6177173;28;83557;-67
2020/12/07 01:03:48;;;;;;;6.60;4.25;;;23.00;32.20;;;;;;6181572;28;82901;-67
2020/12/07 01:06:48;;;;;;;7.28;4.75;;;22.90;32.40;;;;;;6178883;28;80881;-67
2020/12/07 01:09:49;;;;;;;6.50;4.53;;;22.90;32.20;;;;;;6178196;27;82577;-68
2020/12/07 01:12:52;;;;;;;6.63;4.65;;;22.90;32.00;;;;;;6187604;28;83173;-66
2020/12/07 01:15:52;;;;;;;5.95;4.35;;;22.90;32.30;;;;;;6178254;28;81314;-68
2020/12/07 01:18:54;;;;;;;7.65;4.95;;;22.90;32.50;;;;;;6167694;28;82988;-67
2020/12/07 01:21:55;;;;;;;6.07;4.55;;;22.90;32.70;;;;;;6184732;28;82137;-67
2020/12/07 01:24:58;;;;;;;5.55;4.13;;;22.90;32.10;;;;;;6182849;28;80633;-67
2020/12/07 01:28:00;;;;;;;6.63;4.28;;;22.90;31.90;;;;;;6185363;28;80183;-67
2020/12/07 01:31:02;;;;;;;5.90;4.38;;;22.90;32.10;;;;;;6178594;27;81757;-67
2020/12/07 01:34:03;;;;;;;6.25;4.43;;;22.90;32.40;;;;;;6176839;28;82751;-67
2020/12/07 01:37:05;;;;;;;7.25;4.50;;;22.80;32.10;;;;;;6177305;28;82507;-68
2020/12/07 01:40:12;;;;;;;6.68;3.97;;;22.80;32.20;;;;;;6172714;28;83076;-67
2020/12/07 01:43:13;;;;;;;6.57;4.72;;;22.80;32.30;;;;;;6176905;28;82870;-67
2020/12/07 01:46:14;;;;;;;6.50;4.43;;;22.80;32.30;;;;;;6183559;27;80719;-68
2020/12/07 01:49:15;;;;;;;5.50;4.20;;;22.80;32.10;;;;;;6178612;28;84469;-67
2020/12/07 01:52:15;;;;;;;6.63;4.68;;;22.80;32.50;;;;;;6176268;28;81509;-68
2020/12/07 01:55:16;;;;;;;5.97;4.80;;;22.80;32.30;;;;;;6178299;28;83092;-67
2020/12/07 01:58:26;;;;;;;6.85;4.47;;;22.80;32.00;;;;;;6175485;28;83049;-67
2020/12/07 02:01:27;;;;;;;5.82;4.13;;;22.80;32.70;;;;;;6175847;28;80326;-67
2020/12/07 02:04:28;;;;;;;5.38;4.13;;;22.80;32.20;;;;;;6178208;28;81459;-67
2020/12/07 02:07:29;;;;;;;5.53;3.63;;;22.80;32.70;;;;;;6169964;27;81419;-66
2020/12/07 02:10:31;;;;;;;4.93;3.90;;;22.80;32.00;;;;;;6165035;28;80753;-66
2020/12/07 02:13:32;;;;;;;7.47;3.97;;;22.80;32.50;;;;;;6182317;27;82188;-67
2020/12/07 02:16:32;;;;;;;5.22;3.67;;;22.80;32.90;;;;;;6179804;28;83224;-67
2020/12/07 02:19:36;;;;;;;6.13;3.92;;;22.80;32.50;;;;;;6180298;27;82315;-67
2020/12/07 02:22:36;;;;;;;4.75;3.88;;;22.80;32.40;;;;;;6184215;28;82718;-67
2020/12/07 02:25:53;;;;;;;3.92;3.20;;;22.80;32.30;;;;;;6182534;28;80258;-66
2020/12/07 02:28:56;;;;;;;4.68;3.58;;;22.80;32.20;;;;;;6183152;28;81598;-68
2020/12/07 02:32:04;;;;;;;7.60;4.40;;;22.80;32.20;;;;;;6163971;28;81804;-68
2020/12/07 02:35:04;;;;;;;5.38;4.07;;;22.80;32.20;;;;;;6181716;28;83137;-66
2020/12/07 02:38:12;;;;;;;5.68;4.15;;;22.80;32.00;;;;;;6155358;28;87284;-66
2020/12/07 02:41:19;;;;;;;6.25;3.83;;;22.80;32.20;;;;;;6188989;28;81519;-67
2020/12/07 02:44:20;;;;;;;4.97;3.65;;;22.80;32.10;;;;;;6181075;28;82981;-68
2020/12/07 02:47:26;;;;;;;5.00;3.25;;;22.80;32.30;;;;;;6184321;27;81000;-68
2020/12/07 02:50:27;;;;;;;5.07;3.50;;;22.80;32.00;;;;;;6166245;28;82876;-69
2020/12/07 02:53:29;;;;;;;5.70;3.10;;;22.80;32.10;;;;;;6172632;27;83485;-68
2020/12/07 02:56:31;;;;;;;5.38;3.65;;;22.80;32.30;;;;;;6183975;28;83285;-67
2020/12/07 02:59:31;;;;;;;5.03;3.60;;;22.80;32.30;;;;;;6179140;28;82175;-68
2020/12/07 03:02:33;;;;;;;4.72;3.33;;;22.80;32.50;;;;;;6178390;28;81636;-67
2020/12/07 03:05:37;;;;;;;4.55;2.92;;;22.80;32.40;;;;;;6178028;28;80561;-67
2020/12/07 03:08:46;;;;;;;5.10;3.47;;;22.80;32.40;;;;;;6178275;28;81026;-67
2020/12/07 03:11:49;;;;;;;5.95;3.97;;;22.80;32.60;;;;;;6177749;27;82761;-68
2020/12/07 03:14:50;;;;;;;5.00;3.40;;;22.80;32.60;;;;;;6178135;28;83222;-67
2020/12/07 03:17:50;;;;;;;6.25;3.67;;;22.80;32.60;;;;;;6174470;27;82906;-67
2020/12/07 03:20:55;;;;;;;4.68;3.92;;;22.80;32.60;;;;;;6182555;28;82797;-67
2020/12/07 03:23:56;;;;;;;4.40;3.38;;;22.70;32.60;;;;;;6179481;28;82661;-65
2020/12/07 03:27:00;;;;;;;4.72;3.35;;;22.70;32.40;;;;;;6182474;28;82316;-67
2020/12/07 03:30:01;;;;;;;4.35;3.35;;;22.70;32.40;;;;;;6186073;28;83381;-67
2020/12/07 03:33:04;;;;;;;4.80;3.33;;;22.70;32.70;;;;;;6170989;27;83060;-67
2020/12/07 03:36:08;;;;;;;5.38;4.03;;;22.70;32.40;;;;;;6179481;28;84618;-66
2020/12/07 03:39:11;;;;;;;4.90;3.60;;;22.70;32.50;;;;;;6180040;28;81411;-70
2020/12/07 03:42:17;;;;;;;4.47;3.20;;;22.70;32.50;;;;;;6175183;28;81009;-68
2020/12/07 03:45:19;;;;;;;4.13;3.08;;;22.70;33.40;;;;;;6186126;27;83429;-69
2020/12/07 03:48:21;;;;;;;6.10;3.40;;;22.70;32.60;;;;;;6179207;28;81693;-68
2020/12/07 03:51:21;;;;;;;4.53;3.20;;;22.70;32.60;;;;;;6153554;28;83137;-67
2020/12/07 03:54:22;;;;;;;4.55;3.33;;;22.70;33.50;;;;;;6170566;28;82367;-69
2020/12/07 03:57:24;;;;;;;5.32;3.03;;;22.70;33.30;;;;;;6192847;28;80387;-69
2020/12/07 04:00:25;;;;;;;4.05;3.17;;;22.70;33.40;;;;;;6184446;28;83829;-69
2020/12/07 04:03:35;;;;;;;3.95;3.15;;;22.70;33.50;;;;;;6178534;28;81880;-69
2020/12/07 04:06:44;;;;;;;4.53;2.85;;;22.70;33.80;;;;;;6178552;28;83126;-69
2020/12/07 04:09:50;;;;;;;3.85;3.08;;;22.70;33.70;;;;;;6176491;28;83821;-69
2020/12/07 04:12:51;;;;;;;3.25;2.58;;;22.70;33.50;;;;;;6176208;27;85051;-68
2020/12/07 04:15:51;;;;;;;4.47;3.17;;;22.70;33.60;;;;;;6177957;28;80914;-68
2020/12/07 04:18:52;;;;;;;4.40;2.97;;;22.70;33.70;;;;;;6172823;27;81349;-68
2020/12/07 04:21:53;;;;;;;4.20;2.92;;;22.70;33.70;;;;;;6185163;28;80578;-68
2020/12/07 04:24:53;;;;;;;5.68;2.90;;;22.70;33.40;;;;;;6163740;28;80343;-68
2020/12/07 04:27:54;;;;;;;5.25;3.22;;;22.80;33.40;;;;;;6153310;28;80432;-68
2020/12/07 04:30:54;;;;;;;3.25;2.78;;;22.70;33.40;;;;;;6156702;28;82210;-68
2020/12/07 04:33:55;;;;;;;5.45;3.28;;;22.70;33.70;;;;;;6155537;28;80852;-67
2020/12/07 04:36:55;;;;;;;4.15;3.47;;;22.70;33.40;;;;;;6153538;27;80307;-69
2020/12/07 04:39:56;;;;;;;6.32;2.88;;;22.70;33.40;;;;;;6153995;28;80854;-68
2020/12/07 04:42:57;;;;;;;3.78;2.97;;;22.70;33.50;;;;;;6135267;28;80695;-68
2020/12/07 04:45:57;;;;;;;2.92;2.60;;;22.70;33.30;;;;;;6153303;28;81816;-68
2020/12/07 04:48:58;;;;;;;3.40;2.78;;;22.70;33.30;;;;;;6156659;27;80347;-68
2020/12/07 04:51:58;;;;;;;3.60;3.00;;;22.70;33.50;;;;;;6150681;28;80273;-68
2020/12/07 04:54:59;;;;;;;3.72;2.90;;;22.70;33.30;;;;;;6156658;27;81070;-68
2020/12/07 04:57:59;;;;;;;7.95;3.00;;;22.70;33.50;;;;;;6155048;28;81357;-69
2020/12/07 05:01:00;;;;;;;3.95;2.75;;;22.70;33.30;;;;;;6170386;28;80650;-69
2020/12/07 05:04:00;;;;;;;3.50;2.70;;;22.70;33.30;;;;;;6173685;28;81715;-70
2020/12/07 05:07:01;;;;;;;5.00;3.28;;;22.70;33.30;;;;;;6178315;27;80342;-68
2020/12/07 05:10:09;;;;;;;3.05;2.55;;;22.70;33.20;;;;;;6179539;28;82178;-68
2020/12/07 05:13:45;;;;;;;2.80;2.50;;;22.70;33.20;;;;;;6177695;28;80684;-68
2020/12/07 05:16:37;;;;;;;;;;;22.70;33.30;;;;;;6180724;28;80845;-69
2020/12/07 05:19:37;;;;;;;3.47;2.80;;;22.70;33.30;;;;;;6160338;28;83301;-69
2020/12/07 05:22:38;;;;;;;4.10;3.08;;;22.70;33.50;;;;;;6180636;27;81054;-68
2020/12/07 05:25:38;;;;;;;5.75;2.78;;;22.70;33.40;;;;;;6177829;28;81120;-69
2020/12/07 05:28:45;;;;;;;4.30;3.03;;;22.70;33.20;;;;;;6179902;28;80277;-69
2020/12/07 05:31:46;;;;;;;4.15;2.72;;;22.70;33.30;;;;;;6183258;27;81273;-67
2020/12/07 05:34:46;;;;;;;3.70;2.78;;;22.70;33.90;;;;;;6156200;28;80641;-66
2020/12/07 05:37:47;;;;;;;3.90;2.50;;;22.70;33.80;;;;;;6181278;28;81679;-65
2020/12/07 05:40:47;;;;;;;6.85;2.65;;;22.70;33.90;;;;;;6180029;28;80915;-66
2020/12/07 05:43:48;;;;;;;3.58;2.70;;;22.70;34.10;;;;;;6194362;28;80534;-68
2020/12/07 05:46:49;;;;;;;3.15;2.42;;;22.70;34.20;;;;;;6187835;28;81452;-72
2020/12/07 05:49:49;;;;;;;7.47;3.35;;;22.80;34.80;;;;;;6195376;28;80831;-70
2020/12/07 05:52:50;;;;;;;4.30;2.60;;;22.80;35.60;;;;;;6199833;28;80598;-71
2020/12/07 05:55:50;;;;;;;6.00;3.88;;;22.80;36.20;;;;;;6190025;28;84272;-72
2020/12/07 05:58:51;;;;;;;6.38;3.90;;;22.80;36.60;;;;;;6192126;28;82113;-70
2020/12/07 06:01:51;;;;;;;7.97;4.15;;;22.80;37.00;;;;;;6180638;27;81740;-71
2020/12/07 06:04:52;;;;;;;9.88;4.28;;;22.80;38.00;;;;;;6183215;28;80919;-71
2020/12/07 06:07:52;;;;;;;11.02;4.32;;;22.80;37.80;;;;;;6177741;28;80888;-71
2020/12/07 06:10:53;;;;;;;7.63;4.45;;;22.80;38.20;;;;;;6179264;28;80357;-73
2020/12/07 06:13:53;;;;;;;8.07;4.38;;;22.80;38.70;;;;;;6175386;28;80943;-67
2020/12/07 06:16:54;;;;;;;9.80;3.95;;;22.80;39.00;;;;;;6174771;28;80682;-67
2020/12/07 06:19:54;;;;;;;8.75;4.60;;;22.80;39.00;;;;;;6180932;27;80637;-61
2020/12/07 06:22:55;;;;;;;6.18;4.18;;;22.80;39.40;;;;;;6176822;28;82741;-63
2020/12/07 06:25:56;;;;;;;8.73;4.20;;;22.90;39.40;;;;;;6173057;27;80806;-72
2020/12/07 06:28:56;;;;;;;6.68;4.07;;;23.00;39.50;;;;;;6156239;28;80594;-72
2020/12/07 06:31:57;;;;;;;9.65;3.97;;;22.90;39.50;;;;;;6151653;28;80315;-72
2020/12/07 06:34:58;;;;;;;13.85;4.53;;;22.90;39.20;;;;;;6176137;28;80727;-70
2020/12/07 06:37:58;;;;;;;9.88;4.22;;;22.80;39.00;;;;;;6174647;28;81687;-68
2020/12/07 06:40:59;;;;;;;9.77;4.13;;;22.90;39.10;;;;;;6172369;28;80799;-67
2020/12/07 06:43:59;;;;;;;9.95;4.13;;;22.80;39.10;;;;;;6179596;27;81019;-65
2020/12/07 06:50:04;;;;;;;7.00;3.95;;;22.80;39.30;;;;;;6153812;28;80848;-67
2020/12/07 06:53:04;;;;;;;8.20;3.88;;;22.80;39.10;;;;;;6147647;28;80757;-68
2020/12/07 06:56:05;;;;;;;4.45;3.15;;;22.80;39.00;;;;;;6153345;28;81146;-69
2020/12/07 06:59:05;;;;;;;6.03;3.65;;;22.80;38.80;;;;;;6154453;28;80694;-63
2020/12/07 07:02:06;;;;;;;5.25;3.85;;;22.80;38.80;;;;;;6187744;28;80859;-70
2020/12/07 07:05:07;;;;;;;4.70;3.53;;;22.80;38.80;;;;;;6152677;28;83414;-68
2020/12/07 07:08:07;;;;;;;6.25;4.10;;;22.80;38.80;;;;;;6161614;28;80687;-69
2020/12/07 07:11:08;;;;;;;5.43;3.20;;;22.80;38.50;;;;;;6150342;28;80877;-69
2020/12/07 07:14:09;;;;;;;6.72;4.22;;;22.80;38.30;;;;;;6150221;28;81152;-69
2020/12/07 07:17:09;;;;;;;7.15;3.17;;;22.80;38.20;;;;;;6151258;28;80740;-69
2020/12/07 07:20:10;;;;;;;7.20;3.97;;;22.80;38.30;;;;;;6154317;28;80920;-68
2020/12/07 07:23:10;;;;;;;9.02;4.00;;;22.80;38.30;;;;;;6153354;28;83514;-64
2020/12/07 07:26:14;;;;;;;9.02;3.95;;;22.80;38.30;;;;;;6179753;28;80884;-68
2020/12/07 07:29:14;;;;;;;9.90;3.70;;;22.80;38.70;;;;;;6174094;27;81376;-69
2020/12/07 07:32:15;;;;;;;9.05;4.45;;;22.80;38.50;;;;;;6177372;28;80668;-70
2020/12/07 07:35:15;;;;;;;5.93;3.65;;;22.80;38.90;;;;;;6178634;28;80606;-69
2020/12/07 07:38:16;;;;;;;5.85;3.88;;;22.80;38.70;;;;;;6180121;28;80541;-68
2020/12/07 07:41:16;;;;;;;5.97;4.18;;;22.80;38.90;;;;;;6177000;28;81086;-70
2020/12/07 07:44:17;;;;;;;6.45;4.10;;;22.80;38.80;;;;;;6177434;27;82010;-68
2020/12/07 07:47:24;;;;;;;5.22;3.50;;;22.80;38.80;;;;;;6178844;28;80593;-67
2020/12/07 08:16:28;;;;;;;5.63;3.83;;;22.90;39.20;;;;;;6160765;28;80691;-69
2020/12/07 08:19:30;;;;;;;6.95;4.20;;;23.00;39.80;;;;;;6136700;28;81627;-73
2020/12/07 08:22:31;;;;;;;6.25;3.85;;;23.00;39.40;;;;;;6151534;28;81642;-69
2020/12/07 08:25:31;;;;;;;7.18;4.90;;;23.00;39.10;;;;;;6182985;28;80961;-71
2020/12/07 08:28:32;;;;;;;4.47;3.58;;;23.00;39.60;;;;;;6194299;28;81387;-70
2020/12/07 08:31:32;;;;;;;7.13;4.10;;;23.00;39.70;;;;;;6196332;28;80646;-71
2020/12/07 08:34:33;;;;;;;6.70;4.18;;;23.00;39.80;;;;;;6190997;28;82045;-72
2020/12/07 08:37:33;;;;;;;8.05;4.25;;;23.10;40.10;;;;;;6187294;28;80707;-71
2020/12/07 08:40:34;;;;;;;5.97;4.10;;;23.10;40.20;;;;;;6177496;28;81492;-71
2020/12/07 08:43:34;;;;;;;8.30;4.00;;;23.10;40.30;;;;;;6172489;28;80688;-70
2020/12/07 08:46:36;;;;;;;6.15;3.90;;;23.10;40.20;;;;;;6173859;27;80623;-69
2020/12/07 08:49:36;;;;;;;7.88;4.32;;;23.20;41.30;;;;;;6169597;28;80629;-70
2020/12/07 08:52:37;;;;;;;7.65;4.35;;;23.20;41.10;;;;;;6177120;28;80740;-71
2020/12/07 08:55:37;;;;;;;5.53;4.10;;;23.20;40.90;;;;;;6177029;27;80824;-71
2020/12/07 08:58:38;;;;;;;6.32;4.20;;;23.20;41.00;;;;;;6179030;28;80256;-71
2020/12/07 09:01:39;;;;;;;6.20;4.18;;;23.20;40.40;;;;;;6170487;27;80764;-71
2020/12/07 09:04:39;;;;;;;7.00;4.43;;;23.20;40.40;;;;;;6175120;28;82074;-69
2020/12/07 09:07:40;;;;;;;10.23;4.68;;;23.20;40.20;;;;;;6156077;28;81259;-71
2020/12/07 09:10:40;;;;;;;7.28;4.50;;;23.20;39.90;;;;;;6170288;28;81265;-70
2020/12/07 09:13:41;;;;;;;8.20;4.28;;;23.20;39.50;;;;;;6156480;28;80443;-71
2020/12/07 09:16:42;;;;;;;7.60;4.55;;;23.30;39.30;;;;;;6150286;28;81863;-69
2020/12/07 09:19:42;;;;;;;8.70;4.65;;;23.30;39.10;;;;;;6152341;28;80974;-73
2020/12/07 09:22:43;;;;;;;6.65;4.30;;;23.30;38.60;;;;;;6153166;28;80799;-67
2020/12/07 09:25:44;;;;;;;6.72;4.32;;;23.30;38.80;;;;;;6152988;28;80559;-69
2020/12/07 09:28:44;;;;;;;6.25;3.50;;;23.30;38.40;;;;;;6178747;28;80716;-69
2020/12/07 09:31:45;;;;;;;5.28;4.43;;;23.30;39.00;;;;;;6146998;28;80329;-71
2020/12/07 09:34:45;;;;;;;8.80;5.05;;;23.30;39.50;;;;;;6169049;28;81780;-69
2020/12/07 09:37:46;;;;;;;11.77;5.03;;;23.30;39.10;;;;;;6167019;28;80343;-70
2020/12/07 09:40:46;;;;;;;7.65;4.53;;;23.40;40.00;;;;;;6173251;27;80460;-67
2020/12/07 09:43:47;;;;;;;6.70;4.90;;;23.40;40.10;;;;;;6176451;28;82827;-69
2020/12/07 09:46:48;;;;;;;8.82;4.45;;;23.50;40.30;;;;;;6175689;28;80629;-70
2020/12/07 09:49:48;;;;;;;7.13;5.05;;;23.50;40.30;;;;;;6189317;28;81386;-70
2020/12/07 09:52:49;;;;;;;8.20;4.75;;;23.50;40.30;;;;;;6176352;28;80532;-69
2020/12/07 09:55:50;;;;;;;8.52;4.65;;;23.50;40.50;;;;;;6171498;27;81037;-69
2020/12/07 09:58:51;;;;;;;7.78;4.80;;;23.50;40.50;;;;;;6174356;28;80654;-68
2020/12/07 10:01:51;;;;;;;7.57;5.15;;;23.50;40.40;;;;;;6176367;28;80451;-67
2020/12/07 10:04:52;;;;;;;6.25;4.63;;;23.60;40.40;;;;;;6174031;28;81355;-68
2020/12/07 10:07:52;;;;;;;10.60;4.88;;;23.50;40.20;;;;;;6177371;28;82907;-68
2020/12/07 10:10:53;;;;;;;6.78;4.50;;;23.60;40.20;;;;;;6170385;28;81059;-68
2020/12/07 10:13:54;;;;;;;8.27;4.75;;;23.60;40.30;;;;;;6177612;28;81114;-70
2020/12/07 10:16:56;;;;;;;6.80;4.53;;;23.60;40.20;;;;;;6169638;28;81054;-70
2020/12/07 10:19:56;;;;;;;6.07;4.45;;;23.70;40.20;;;;;;6172304;27;80728;-69
2020/12/07 10:22:57;;;;;;;9.65;4.85;;;23.70;40.20;;;;;;6175581;28;80437;-68
2020/12/07 10:25:57;;;;;;;7.22;3.92;;;23.70;40.20;;;;;;6180889;27;81022;-68
2020/12/07 10:28:58;;;;;;;6.80;4.93;;;23.70;40.20;;;;;;6178059;28;80825;-72
2020/12/07 10:31:59;;;;;;;7.60;4.72;;;23.70;40.20;;;;;;6190403;27;81092;-69
2020/12/07 10:34:59;;;;;;;16.25;6.43;;;23.70;40.30;;;;;;6180187;28;81235;-68
2020/12/07 10:38:00;;;;;;;25.27;7.53;;;23.70;40.90;;;;;;6184737;27;80924;-69
2020/12/07 10:41:00;;;;;;;30.88;9.38;;;23.70;41.70;;;;;;6155501;28;81435;-69
2020/12/07 10:44:01;;;;;;;24.75;10.43;;;23.70;42.30;;;;;;6177585;28;81426;-68
2020/12/07 10:47:02;;;;;;;30.02;10.77;;;23.80;42.40;;;;;;6175801;28;83187;-72
2020/12/07 10:50:02;;;;;;;27.30;10.55;;;23.90;42.30;;;;;;6177661;28;83493;-71
2020/12/07 10:53:03;;;;;;;26.75;10.90;;;23.80;42.50;;;;;;6175781;27;83347;-71
2020/12/07 10:56:03;;;;;;;30.55;10.63;;;23.80;42.40;;;;;;6171649;28;82914;-72
2020/12/07 10:59:04;;;;;;;27.90;10.10;;;23.80;42.50;;;;;;6154692;28;83344;-71
2020/12/07 11:02:05;;;;;;;33.65;13.45;;;23.90;42.20;;;;;;6176407;28;83458;-74
2020/12/07 11:05:05;;;;;;;31.05;12.85;;;23.90;42.70;;;;;;6175230;27;84004;-69
2020/12/07 11:08:19;;;;;;;32.13;13.05;;;23.90;41.90;;;;;;6152650;28;83711;-71
2020/12/07 11:11:21;;;;;;;31.65;12.43;;;24.00;42.10;;;;;;6173947;28;87661;-70
2020/12/07 11:14:21;;;;;;;23.58;12.02;;;24.00;41.90;;;;;;6182919;27;84033;-70
2020/12/07 11:17:22;;;;;;;27.80;12.93;;;24.00;40.90;;;;;;6174257;28;82874;-71
2020/12/07 11:20:22;;;;;;;21.42;11.02;;;24.00;40.70;;;;;;6174523;28;83767;-70
2020/12/07 11:23:23;;;;;;;28.77;12.00;;;24.00;40.30;;;;;;6175656;28;83309;-71
2020/12/07 11:26:24;;;;;;;23.30;11.10;;;24.00;40.10;;;;;;6172937;27;83273;-72
2020/12/07 11:29:24;;;;;;;27.40;12.60;;;24.00;39.70;;;;;;6175565;28;82924;-71
2020/12/07 11:32:25;;;;;;;23.10;10.65;;;24.00;39.50;;;;;;6169402;28;83794;-68
2020/12/07 11:35:26;;;;;;;22.42;11.35;;;24.00;39.40;;;;;;6171331;27;85661;-69
2020/12/07 11:38:30;;;;;;;20.63;10.45;;;24.00;39.30;;;;;;6175761;28;83315;-69
2020/12/07 11:44:49;;;;;;;22.55;10.50;;;24.00;38.90;;;;;;6176452;28;84534;-71
2020/12/07 11:47:50;;;;;;;20.90;9.82;;;24.00;38.80;;;;;;6175450;27;82955;-71
2020/12/07 11:50:50;;;;;;;24.48;10.23;;;24.00;38.60;;;;;;6181494;28;83904;-72
2020/12/07 11:53:52;;;;;;;16.23;8.65;;;23.90;38.40;;;;;;6190964;28;83389;-71
2020/12/07 11:56:53;;;;;;;14.60;8.40;;;23.90;38.30;;;;;;6179850;28;83953;-68
2020/12/07 11:59:53;;;;;;;16.23;8.95;;;23.90;38.00;;;;;;6154201;28;80794;-69
2020/12/07 12:02:54;;;;;;;19.33;9.05;;;23.80;37.60;;;;;;6148651;28;81850;-75
2020/12/07 12:05:55;;;;;;;16.88;8.77;;;23.80;37.60;;;;;;6151040;28;81066;-74
2020/12/07 12:08:55;;;;;;;22.63;7.80;;;23.80;37.90;;;;;;6154657;27;80561;-74
2020/12/07 12:11:56;;;;;;;18.52;8.95;;;23.80;37.90;;;;;;6151156;28;81354;-76
2020/12/07 12:14:56;;;;;;;19.02;7.57;;;23.80;38.00;;;;;;6151073;28;80917;-76
2020/12/07 12:17:57;;;;;;;18.52;8.48;;;23.80;37.90;;;;;;6153081;28;81643;-76
2020/12/07 12:20:58;;;;;;;17.55;8.10;;;23.80;37.70;;;;;;6152496;28;80360;-75
2020/12/07 12:24:01;;;;;;;15.95;7.65;;;23.80;37.70;;;;;;6151343;28;81441;-77
2020/12/07 12:27:01;;;;;;;12.88;7.15;;;23.80;37.40;;;;;;6149906;28;81921;-76
2020/12/07 12:30:02;;;;;;;12.68;6.88;;;23.80;37.30;;;;;;6149448;28;80994;-75
2020/12/07 12:33:02;;;;;;;21.10;7.35;;;23.80;36.90;;;;;;6157168;28;83733;-76
2020/12/07 12:36:03;;;;;;;11.98;6.85;;;23.80;36.80;;;;;;6170388;28;81239;-75
2020/12/07 12:39:04;;;;;;;14.82;7.07;;;23.80;36.90;;;;;;6179198;28;80472;-76
2020/12/07 12:42:04;;;;;;;10.13;6.22;;;23.80;36.70;;;;;;6171935;28;81568;-75
2020/12/07 12:45:05;;;;;;;13.98;7.65;;;23.80;36.40;;;;;;6176000;27;82102;-75
2020/12/07 12:48:06;;;;;;;11.30;6.88;;;23.80;36.30;;;;;;6170252;28;80494;-75
2020/12/07 12:51:07;;;;;;;11.07;6.32;;;23.80;36.30;;;;;;6178240;27;81015;-76
2020/12/07 12:54:07;;;;;;;12.13;6.45;;;23.80;36.20;;;;;;6172213;28;82636;-78
2020/12/07 12:57:08;;;;;;;11.20;7.18;;;23.80;36.10;;;;;;6174588;27;80837;-75
2020/12/07 13:00:08;;;;;;;10.52;6.57;;;23.80;36.10;;;;;;6176820;28;81273;-76
2020/12/07 13:03:09;;;;;;;11.15;6.53;;;23.80;35.90;;;;;;6172529;28;80829;-73
2020/12/07 13:06:09;;;;;;;12.10;6.53;;;23.80;35.70;;;;;;6177271;27;81823;-74
2020/12/07 13:09:10;;;;;;;9.98;6.20;;;23.70;35.50;;;;;;6175821;28;81142;-74
2020/12/07 13:12:11;;;;;;;12.02;6.97;;;23.70;35.50;;;;;;6175441;27;80548;-74
2020/12/07 13:15:13;;;;;;;12.18;6.57;;;23.70;35.50;;;;;;6175281;28;80957;-73
2020/12/07 13:18:13;;;;;;;11.98;6.50;;;23.70;35.40;;;;;;6171659;28;80591;-74
2020/12/07 13:30:53;;;;;;;15.27;7.03;;;23.60;35.30;;;;;;6175408;28;80346;-74
2020/12/07 13:33:53;;;;;;;11.98;6.28;;;23.60;35.30;;;;;;6175786;27;83197;-73
2020/12/07 13:36:54;;;;;;;14.38;7.18;;;23.60;35.30;;;;;;6175918;28;80441;-73
2020/12/07 13:39:54;;;;;;;8.98;6.03;;;23.60;35.30;;;;;;6167928;28;81229;-72
2020/12/07 13:42:55;;;;;;;12.13;5.93;;;23.50;35.00;;;;;;6175631;28;80887;-72
2020/12/07 13:45:56;;;;;;;11.60;6.47;;;23.50;35.10;;;;;;6177573;28;81355;-72
2020/12/07 13:48:56;;;;;;;12.05;6.50;;;23.50;34.90;;;;;;6173516;28;81094;-70
2020/12/07 13:51:57;;;;;;;12.45;6.93;;;23.50;35.10;;;;;;6162185;28;80751;-74
2020/12/07 13:54:57;;;;;;;12.75;6.40;;;23.50;35.20;;;;;;6149959;28;82168;-71
2020/12/07 13:57:58;;;;;;;10.68;6.38;;;23.50;35.40;;;;;;6169094;28;80680;-72
2020/12/07 14:01:01;;;;;;;12.35;6.25;;;23.50;35.50;;;;;;6180565;28;80866;-71
2020/12/07 14:04:11;;;;;;;10.23;6.28;;;23.50;35.40;;;;;;6181622;27;80712;-59
2020/12/07 14:07:11;;;;;;;11.90;6.45;;;23.50;35.90;;;;;;6190350;28;83524;-57
2020/12/07 14:10:13;;;;;;;13.50;6.90;;;23.50;35.30;;;;;;6188867;28;80993;-58
2020/12/07 14:13:14;;;;;;;11.35;6.95;;;23.50;35.60;;;;;;6184896;28;80776;-58
2020/12/07 14:16:15;;;;;;;9.95;6.65;;;23.50;35.60;;;;;;6166252;28;80626;-59
2020/12/07 14:19:23;;;;;;;13.77;6.85;;;23.40;35.20;;;;;;6155196;28;81923;-59
2020/12/07 14:25:54;;;;;;;10.82;6.10;;;23.40;35.30;;;;;;6170943;28;80928;-57
2020/12/07 14:41:34;;;;;;;10.18;6.47;;;23.30;35.60;;;;;;6173823;28;81902;-58
2020/12/07 14:44:40;;;;;;;11.25;6.78;;;23.30;35.40;;;;;;6154531;28;80638;-58
2020/12/07 14:47:53;;;;;;;13.60;7.30;;;23.30;35.50;;;;;;6163006;28;80620;-59
2020/12/07 14:51:04;;;;;;;12.50;7.13;;;23.30;35.70;;;;;;6186296;27;82311;-58
2020/12/07 14:54:15;;;;;;;11.00;7.13;;;23.30;36.00;;;;;;6188988;28;81503;-59
2020/12/07 15:05:22;;;;;;;17.23;7.55;;;23.40;36.20;;;;;;6155452;28;81015;-58
2020/12/07 15:16:48;;;;;;;11.20;7.53;;;23.40;36.20;;;;;;6169048;28;80426;-58
2020/12/07 15:19:49;;;;;;;11.98;7.47;;;23.30;36.00;;;;;;6178704;28;80504;-59
2020/12/07 15:22:49;;;;;;;12.43;7.80;;;23.30;35.90;;;;;;6175586;28;80738;-55
2020/12/07 15:25:50;;;;;;;12.48;7.57;;;23.40;36.00;;;;;;6178629;28;80985;-56
2020/12/07 15:28:51;;;;;;;14.77;7.82;;;23.40;35.80;;;;;;6172775;27;81621;-57
2020/12/07 15:31:51;;;;;;;16.70;7.80;;;23.40;35.90;;;;;;6178714;28;80984;-60
2020/12/07 15:34:52;;;;;;;14.52;7.43;;;23.40;35.80;;;;;;6180024;27;81014;-56
2020/12/07 15:37:52;;;;;;;12.75;8.25;;;23.40;35.70;;;;;;6179964;28;82969;-57
2020/12/07 15:40:53;;;;;;;12.90;8.13;;;23.40;36.10;;;;;;6178487;28;80802;-56
2020/12/07 15:43:53;;;;;;;12.50;7.13;;;23.40;35.90;;;;;;6178113;28;80405;-54
2020/12/07 15:46:56;;;;;;;11.18;7.85;;;23.40;36.00;;;;;;6175470;28;80819;-55
2020/12/07 15:49:56;;;;;;;16.75;8.13;;;23.40;35.80;;;;;;6178090;28;82677;-55
2020/12/07 15:52:57;;;;;;;14.07;8.15;;;23.40;35.90;;;;;;6193282;27;80445;-55
2020/12/07 15:55:57;;;;;;;14.60;6.97;;;23.40;35.80;;;;;;6178853;28;82928;-56
2020/12/07 15:58:58;;;;;;;14.18;8.00;;;23.40;36.00;;;;;;6177932;27;80324;-51
2020/12/07 16:01:58;;;;;;;15.90;7.75;;;23.50;35.70;;;;;;6180076;28;80790;-55
2020/12/07 16:04:59;;;;;;;13.90;7.30;;;23.50;35.70;;;;;;6180244;27;80359;-54
2020/12/07 16:07:59;;;;;;;13.80;8.27;;;23.50;35.70;;;;;;6176201;28;80530;-52
2020/12/07 16:11:00;;;;;;;14.70;7.55;;;23.50;35.60;;;;;;6175895;28;80945;-53
2020/12/07 16:14:01;;;;;;;13.02;7.97;;;23.50;35.80;;;;;;6178788;28;80625;-56
2020/12/07 16:17:01;;;;;;;14.43;7.57;;;23.50;36.10;;;;;;6179507;27;81174;-55
2020/12/07 16:20:02;;;;;;;13.35;8.45;;;23.50;36.20;;;;;;6178100;28;80546;-54
2020/12/07 16:23:03;;;;;;;10.80;7.78;;;23.50;35.90;;;;;;6178714;27;80603;-55
2020/12/07 16:26:04;;;;;;;13.20;8.75;;;23.50;35.90;;;;;;6177786;28;81077;-55
2020/12/07 16:29:04;;;;;;;15.98;8.15;;;23.50;35.90;;;;;;6178518;28;80611;-55
2020/12/07 16:32:05;;;;;;;16.58;8.95;;;23.50;36.00;;;;;;6177983;28;81145;-56
2020/12/07 16:35:06;;;;;;;13.70;8.63;;;23.50;36.00;;;;;;6174125;28;81853;-55
2020/12/07 16:38:06;;;;;;;17.02;8.52;;;23.50;36.00;;;;;;6152826;27;81010;-54
2020/12/07 16:41:07;;;;;;;13.55;8.15;;;23.50;36.00;;;;;;6142869;28;80678;-54
2020/12/07 16:44:07;;;;;;;13.63;8.00;;;23.50;36.30;;;;;;6145872;28;83553;-54
2020/12/07 16:47:08;;;;;;;13.48;8.48;;;23.50;36.00;;;;;;6175647;28;80918;-58
2020/12/07 16:50:09;;;;;;;13.60;8.48;;;23.50;35.90;;;;;;6141981;28;81523;-54
2020/12/07 16:53:10;;;;;;;12.45;8.18;;;23.50;36.00;;;;;;6166413;28;82028;-57